Time;durP1;ratioP1;P1;durP2;ratioP2;P2;SDS_P1;SDS_P2;PMS_P1;PMS_P2;Temp;Humidity;BMP_temperature;BMP_pressure;BME280_temperature;BME280_humidity;BME280_pressure;Samples;Min_cycle;Max_cycle;Signal;HPM_P1;HPM_P2
2021/12/16 00:07:44;;;;;;;609.67;86.80;;;;;;;;;;5051561;28;20180;-75
2021/12/16 00:31:30;;;;;;;653.60;92.43;;;;;;;;;;5052612;28;20179;-75
2021/12/16 00:34:01;;;;;;;715.50;98.40;;;;;;;;;;5068051;28;20259;-75
2021/12/16 00:36:35;;;;;;;688.60;90.90;;;;;;;;;;5051203;28;20182;-75
2021/12/16 00:39:14;;;;;;;684.30;86.00;;;;;;;;;;5051307;28;20220;-75
2021/12/16 00:41:44;;;;;;;661.53;87.93;;;;;;;;;;5035106;28;20177;-75
2021/12/16 00:45:19;;;;;;;758.50;92.23;;;;;;;;;;5051662;28;20220;-76
2021/12/16 00:49:47;;;;;;;659.37;86.60;;;;;;;;;;5052153;28;20247;-76
2021/12/16 00:55:09;;;;;;;598.67;84.80;;;;;;;;;;5051028;28;20195;-75
2021/12/16 00:57:38;;;;;;;584.23;83.93;;;;;;;;;;5019350;28;20184;-76
2021/12/16 01:00:08;;;;;;;659.53;89.33;;;;;;;;;;5050920;28;20216;-76
2021/12/16 01:36:22;;;;;;;531.17;71.57;;;;;;;;;;5054639;28;20180;-76
2021/12/16 01:49:11;;;;;;;568.23;74.20;;;;;;;;;;5038131;28;20193;-73
2021/12/16 01:57:04;;;;;;;584.90;74.70;;;;;;;;;;5055681;28;20626;-75
2021/12/16 01:59:36;;;;;;;530.87;70.27;;;;;;;;;;5038628;28;20793;-75
2021/12/16 02:03:08;;;;;;;573.27;76.73;;;;;;;;;;5038056;28;20180;-75
2021/12/16 02:10:37;;;;;;;461.17;63.70;;;;;;;;;;5054924;28;20679;-74
2021/12/16 02:13:32;;;;;;;500.70;67.13;;;;;;;;;;5036826;28;20230;-75
2021/12/16 02:27:25;;;;;;;463.07;62.77;;;;;;;;;;5039047;28;20178;-75
2021/12/16 02:37:30;;;;;;;493.67;69.50;;;;;;;;;;5037156;28;20172;-75
2021/12/16 02:39:58;;;;;;;415.07;60.07;;;;;;;;;;5037414;28;20204;-74
2021/12/16 02:42:36;;;;;;;483.10;66.57;;;;;;;;;;5036459;28;20227;-75
2021/12/16 02:50:17;;;;;;;454.37;60.03;;;;;;;;;;5052770;28;20243;-75
2021/12/16 02:52:44;;;;;;;415.67;60.40;;;;;;;;;;5036323;28;20195;-74
2021/12/16 02:55:14;;;;;;;429.20;59.30;;;;;;;;;;5052594;28;20206;-76
2021/12/16 02:57:48;;;;;;;426.37;61.10;;;;;;;;;;5036149;28;20188;-76
2021/12/16 03:00:16;;;;;;;404.20;58.03;;;;;;;;;;5036166;28;20204;-76
2021/12/16 03:02:50;;;;;;;316.70;54.87;;;;;;;;;;5036595;28;20184;-75
2021/12/16 03:05:20;;;;;;;366.63;56.73;;;;;;;;;;5036280;28;20188;-75
2021/12/16 03:07:49;;;;;;;394.43;57.97;;;;;;;;;;5036374;28;20204;-75
2021/12/16 03:21:02;;;;;;;482.23;61.03;;;;;;;;;;5052830;28;20208;-76
2021/12/16 03:28:57;;;;;;;574.27;62.80;;;;;;;;;;5051911;28;20732;-76
2021/12/16 03:31:56;;;;;;;678.63;66.23;;;;;;;;;;5052535;28;20536;-77
2021/12/16 03:39:42;;;;;;;665.73;68.53;;;;;;;;;;5051705;28;20269;-76
2021/12/16 03:42:11;;;;;;;805.50;70.10;;;;;;;;;;5052084;28;20204;-75
2021/12/16 03:47:32;;;;;;;785.87;66.13;;;;;;;;;;5037396;28;20184;-76
2021/12/16 03:50:00;;;;;;;728.20;65.30;;;;;;;;;;5051632;28;20180;-76
2021/12/16 03:52:28;;;;;;;636.80;62.97;;;;;;;;;;5052027;28;20188;-76
2021/12/16 03:54:56;;;;;;;636.33;63.33;;;;;;;;;;5035138;28;20245;-75
2021/12/16 03:57:26;;;;;;;636.93;68.13;;;;;;;;;;5035199;28;20212;-75
2021/12/16 03:59:54;;;;;;;826.13;72.47;;;;;;;;;;5035305;28;20742;-75
2021/12/16 04:02:42;;;;;;;765.87;69.63;;;;;;;;;;5044907;28;20654;-75
2021/12/16 04:05:11;;;;;;;636.37;63.17;;;;;;;;;;5035311;28;20203;-74
2021/12/16 04:07:42;;;;;;;619.47;61.90;;;;;;;;;;5035577;28;20630;-75
2021/12/16 04:10:38;;;;;;;605.23;60.83;;;;;;;;;;5051549;28;20216;-75
2021/12/16 04:13:13;;;;;;;627.70;61.73;;;;;;;;;;5036007;28;20179;-74
2021/12/16 04:15:45;;;;;;;635.60;66.43;;;;;;;;;;5035608;28;20183;-73
2021/12/16 04:18:14;;;;;;;630.73;66.97;;;;;;;;;;5035313;28;20192;-74
2021/12/16 04:20:43;;;;;;;553.33;61.63;;;;;;;;;;5051936;28;20212;-75
2021/12/16 04:23:12;;;;;;;640.47;64.73;;;;;;;;;;5035104;28;20200;-75
2021/12/16 04:25:45;;;;;;;632.70;63.23;;;;;;;;;;5051569;28;20219;-75
2021/12/16 04:28:20;;;;;;;544.37;58.40;;;;;;;;;;5035259;28;20183;-75
2021/12/16 04:30:47;;;;;;;626.43;62.30;;;;;;;;;;5051571;28;20188;-74
2021/12/16 04:33:15;;;;;;;629.87;62.87;;;;;;;;;;5035300;28;20192;-73
2021/12/16 04:35:43;;;;;;;674.80;64.77;;;;;;;;;;5034917;28;20200;-74
2021/12/16 04:38:12;;;;;;;592.97;61.10;;;;;;;;;;5051190;28;20192;-74
2021/12/16 04:40:44;;;;;;;524.83;60.67;;;;;;;;;;5034906;28;20220;-75
2021/12/16 04:43:19;;;;;;;505.33;61.93;;;;;;;;;;5035620;28;20187;-75
2021/12/16 04:45:53;;;;;;;474.30;62.73;;;;;;;;;;5021229;28;20187;-75
2021/12/16 04:48:21;;;;;;;630.53;64.90;;;;;;;;;;5054315;28;20648;-75
2021/12/16 04:50:50;;;;;;;483.17;58.07;;;;;;;;;;5038669;28;20249;-75
2021/12/16 04:53:20;;;;;;;479.30;57.77;;;;;;;;;;5071719;28;20199;-76
2021/12/16 04:55:50;;;;;;;459.30;57.67;;;;;;;;;;5055167;28;20657;-76
2021/12/16 04:58:19;;;;;;;534.10;58.57;;;;;;;;;;5038594;28;20192;-76
2021/12/16 05:00:47;;;;;;;502.17;62.30;;;;;;;;;;5038364;28;20216;-76
2021/12/16 05:03:23;;;;;;;509.37;58.87;;;;;;;;;;5067398;28;20263;-75
2021/12/16 05:05:52;;;;;;;491.07;59.77;;;;;;;;;;5033976;28;20224;-76
2021/12/16 05:08:20;;;;;;;486.13;55.63;;;;;;;;;;5036413;28;20290;-77
2021/12/16 05:10:59;;;;;;;460.93;55.13;;;;;;;;;;5052295;28;20239;-76
2021/12/16 05:13:35;;;;;;;459.17;57.23;;;;;;;;;;5066771;28;20227;-76
2021/12/16 05:16:05;;;;;;;423.73;55.23;;;;;;;;;;5057708;28;20217;-77
2021/12/16 05:18:39;;;;;;;485.83;58.20;;;;;;;;;;5051819;28;20250;-76
2021/12/16 05:21:13;;;;;;;417.97;57.70;;;;;;;;;;5033754;28;20236;-77
2021/12/16 05:24:25;;;;;;;440.33;60.47;;;;;;;;;;5018345;28;20228;-76
2021/12/16 05:26:35;;;;;;;494.23;61.80;;;;;;;;;;5049194;28;20229;-76
2021/12/16 05:29:08;;;;;;;462.97;57.80;;;;;;;;;;5034218;28;20227;-76
2021/12/16 05:31:38;;;;;;;447.80;57.03;;;;;;;;;;5053847;28;20265;-77
2021/12/16 05:34:08;;;;;;;417.73;55.60;;;;;;;;;;5053083;28;20322;-75
2021/12/16 05:36:39;;;;;;;384.50;55.63;;;;;;;;;;5053328;28;20224;-76
2021/12/16 05:39:08;;;;;;;409.80;56.23;;;;;;;;;;5030787;28;20224;-75
2021/12/16 05:41:44;;;;;;;432.93;58.03;;;;;;;;;;5050345;28;20220;-75
2021/12/16 05:44:11;;;;;;;498.40;59.60;;;;;;;;;;5017118;28;20736;-76
2021/12/16 05:46:40;;;;;;;454.90;57.20;;;;;;;;;;5017483;28;20741;-77
2021/12/16 05:49:12;;;;;;;466.13;55.40;;;;;;;;;;5043606;28;20228;-76
2021/12/16 05:51:47;;;;;;;469.50;53.37;;;;;;;;;;5069174;28;20228;-75
2021/12/16 05:54:17;;;;;;;446.97;55.67;;;;;;;;;;5069536;28;20281;-79
2021/12/16 05:56:52;;;;;;;468.27;54.63;;;;;;;;;;5053037;28;20220;-78
2021/12/16 05:59:21;;;;;;;408.07;53.40;;;;;;;;;;5052647;28;20757;-79
2021/12/16 06:01:51;;;;;;;398.70;53.07;;;;;;;;;;5037007;28;20216;-78
2021/12/16 06:04:25;;;;;;;419.67;62.20;;;;;;;;;;5037399;28;20222;-77
2021/12/16 06:06:56;;;;;;;442.50;55.67;;;;;;;;;;5036908;28;20299;-81
2021/12/16 06:09:24;;;;;;;435.53;54.93;;;;;;;;;;5036138;28;20231;-77
2021/12/16 06:11:53;;;;;;;427.93;54.80;;;;;;;;;;5036091;28;20319;-77
2021/12/16 06:14:26;;;;;;;430.00;54.53;;;;;;;;;;5054551;28;20654;-76
2021/12/16 06:22:48;;;;;;;472.43;55.27;;;;;;;;;;5067933;28;20181;-78
2021/12/16 06:28:05;;;;;;;457.90;58.70;;;;;;;;;;5053286;28;20226;-76
2021/12/16 06:30:36;;;;;;;434.40;59.47;;;;;;;;;;5052846;28;20184;-77
2021/12/16 06:33:06;;;;;;;436.60;56.67;;;;;;;;;;5069417;28;20192;-76
2021/12/16 06:35:34;;;;;;;447.50;60.03;;;;;;;;;;5069406;28;20584;-77
2021/12/16 06:38:03;;;;;;;442.17;61.60;;;;;;;;;;5052526;28;20196;-76
2021/12/16 06:40:42;;;;;;;453.60;59.43;;;;;;;;;;5053066;28;20203;-76
2021/12/16 06:43:24;;;;;;;463.33;59.37;;;;;;;;;;5067371;28;20195;-77
2021/12/16 06:45:54;;;;;;;467.23;60.30;;;;;;;;;;5052444;28;20214;-78
2021/12/16 06:48:27;;;;;;;469.70;59.77;;;;;;;;;;5052502;28;20738;-77
2021/12/16 06:51:00;;;;;;;455.33;65.17;;;;;;;;;;5068377;28;20183;-77
2021/12/16 06:53:32;;;;;;;469.87;99.27;;;;;;;;;;5052386;28;20184;-77
2021/12/16 06:56:12;;;;;;;458.23;85.67;;;;;;;;;;5052559;28;20169;-76
2021/12/16 06:58:46;;;;;;;420.57;68.57;;;;;;;;;;5053801;28;20168;-77
2021/12/16 07:01:31;;;;;;;418.63;71.27;;;;;;;;;;5069255;28;20222;-76
2021/12/16 07:03:58;;;;;;;394.13;70.87;;;;;;;;;;5067235;28;20176;-76
2021/12/16 07:06:29;;;;;;;342.83;62.57;;;;;;;;;;5036212;28;20188;-79
2021/12/16 07:09:01;;;;;;;346.57;61.67;;;;;;;;;;5053044;28;20191;-79
2021/12/16 07:11:30;;;;;;;342.47;61.37;;;;;;;;;;5068127;28;20242;-77
2021/12/16 07:14:00;;;;;;;352.13;60.30;;;;;;;;;;5053680;28;20275;-77
2021/12/16 07:16:29;;;;;;;341.73;58.90;;;;;;;;;;5053292;28;20200;-77
2021/12/16 07:18:57;;;;;;;307.43;58.33;;;;;;;;;;5052112;28;20218;-79
2021/12/16 07:21:25;;;;;;;337.50;63.20;;;;;;;;;;5035829;28;20298;-78
2021/12/16 07:23:53;;;;;;;330.77;64.10;;;;;;;;;;5035867;28;20222;-77
2021/12/16 07:26:21;;;;;;;313.27;60.17;;;;;;;;;;5051942;28;20200;-75
2021/12/16 07:28:48;;;;;;;324.97;63.17;;;;;;;;;;5053183;28;20211;-77
2021/12/16 07:31:16;;;;;;;323.47;61.97;;;;;;;;;;5052186;28;20196;-78
2021/12/16 07:33:43;;;;;;;298.10;60.13;;;;;;;;;;5053243;28;20224;-76
2021/12/16 07:36:13;;;;;;;310.90;63.60;;;;;;;;;;5053002;28;20219;-77
2021/12/16 07:38:40;;;;;;;330.60;62.80;;;;;;;;;;5053322;28;20192;-77
2021/12/16 07:41:07;;;;;;;326.23;63.07;;;;;;;;;;5053282;28;20216;-78
2021/12/16 07:43:53;;;;;;;324.40;63.33;;;;;;;;;;5068506;28;20654;-77
2021/12/16 07:46:29;;;;;;;318.77;64.23;;;;;;;;;;5067284;28;20184;-77
2021/12/16 07:48:57;;;;;;;307.07;63.60;;;;;;;;;;5068124;28;20230;-78
2021/12/16 07:51:24;;;;;;;347.33;66.27;;;;;;;;;;5068067;28;20685;-76
2021/12/16 07:53:55;;;;;;;334.97;66.60;;;;;;;;;;5052721;28;20243;-77
2021/12/16 07:56:22;;;;;;;297.67;64.23;;;;;;;;;;5067867;28;20200;-78
2021/12/16 07:58:49;;;;;;;313.93;64.93;;;;;;;;;;5051849;28;20557;-77
2021/12/16 08:01:17;;;;;;;305.87;63.20;;;;;;;;;;5052768;28;20231;-78
2021/12/16 08:03:44;;;;;;;322.43;64.13;;;;;;;;;;5068247;28;20566;-77
2021/12/16 08:06:18;;;;;;;316.23;63.20;;;;;;;;;;5051500;28;20200;-77
2021/12/16 08:08:46;;;;;;;293.17;61.50;;;;;;;;;;5067465;28;20202;-79
2021/12/16 08:11:13;;;;;;;282.80;62.60;;;;;;;;;;5067898;28;20216;-76
2021/12/16 08:13:41;;;;;;;295.20;64.00;;;;;;;;;;5051541;28;20216;-78
2021/12/16 08:16:10;;;;;;;276.87;61.03;;;;;;;;;;5051771;28;20227;-77
2021/12/16 08:18:38;;;;;;;315.63;66.73;;;;;;;;;;5051513;28;20220;-78
2021/12/16 08:21:05;;;;;;;289.03;64.97;;;;;;;;;;5052405;28;20232;-78
2021/12/16 08:23:33;;;;;;;293.40;63.53;;;;;;;;;;5056829;28;20203;-77
2021/12/16 08:26:00;;;;;;;287.23;61.57;;;;;;;;;;5056809;28;20203;-77
2021/12/16 08:28:28;;;;;;;289.37;63.87;;;;;;;;;;5071938;28;20204;-78
2021/12/16 08:30:55;;;;;;;299.13;66.60;;;;;;;;;;5055233;28;20275;-77
2021/12/16 08:33:22;;;;;;;313.73;64.87;;;;;;;;;;5072034;28;20254;-77
2021/12/16 08:35:52;;;;;;;304.77;64.20;;;;;;;;;;5071916;28;20195;-78
2021/12/16 08:38:23;;;;;;;304.97;63.47;;;;;;;;;;5071550;28;20184;-77
2021/12/16 08:40:53;;;;;;;305.27;63.93;;;;;;;;;;5071395;28;20220;-79
2021/12/16 08:43:21;;;;;;;311.20;63.57;;;;;;;;;;5056331;28;20224;-77
2021/12/16 08:45:54;;;;;;;289.70;64.30;;;;;;;;;;5070906;28;20236;-77
2021/12/16 08:48:22;;;;;;;296.93;63.07;;;;;;;;;;5055288;28;20212;-78
2021/12/16 08:50:50;;;;;;;306.43;66.00;;;;;;;;;;5055970;28;20198;-79
2021/12/16 08:53:20;;;;;;;292.37;65.27;;;;;;;;;;5071383;28;20245;-77
2021/12/16 08:55:48;;;;;;;298.10;63.27;;;;;;;;;;5071521;28;20188;-78
2021/12/16 08:58:16;;;;;;;297.40;64.00;;;;;;;;;;5071610;28;20286;-77
2021/12/16 09:00:48;;;;;;;290.33;62.40;;;;;;;;;;5055744;28;20693;-77
2021/12/16 09:03:16;;;;;;;275.17;63.70;;;;;;;;;;5038765;28;20176;-77
2021/12/16 09:05:43;;;;;;;258.40;59.70;;;;;;;;;;5071479;28;20196;-77
2021/12/16 09:08:11;;;;;;;269.37;60.37;;;;;;;;;;5071643;28;20204;-77
2021/12/16 09:10:38;;;;;;;269.80;62.30;;;;;;;;;;5071185;28;20245;-77
2021/12/16 09:13:12;;;;;;;275.07;62.13;;;;;;;;;;5071288;28;20181;-77
2021/12/16 09:15:42;;;;;;;274.40;63.63;;;;;;;;;;5055955;28;20177;-77
2021/12/16 09:18:11;;;;;;;267.63;61.63;;;;;;;;;;5071293;28;20207;-77
2021/12/16 09:20:39;;;;;;;262.03;61.47;;;;;;;;;;5071335;28;20212;-77
2021/12/16 09:23:10;;;;;;;237.03;59.50;;;;;;;;;;5054228;28;20208;-80
2021/12/16 09:25:39;;;;;;;227.67;56.77;;;;;;;;;;5071204;28;20195;-78
2021/12/16 09:28:06;;;;;;;220.00;57.63;;;;;;;;;;5054531;28;20200;-77
2021/12/16 09:30:34;;;;;;;202.53;57.03;;;;;;;;;;5038109;28;20249;-77
2021/12/16 09:33:04;;;;;;;211.57;56.23;;;;;;;;;;5070122;28;20223;-77
2021/12/16 09:35:35;;;;;;;203.77;54.80;;;;;;;;;;5055234;28;20279;-77
2021/12/16 09:38:03;;;;;;;198.00;54.40;;;;;;;;;;5055402;28;20184;-76
2021/12/16 09:40:35;;;;;;;186.20;52.97;;;;;;;;;;5070672;28;20266;-78
2021/12/16 09:43:04;;;;;;;202.43;58.03;;;;;;;;;;5054125;28;20185;-78
2021/12/16 09:45:52;;;;;;;175.53;52.70;;;;;;;;;;5055171;28;20177;-77
2021/12/16 09:48:20;;;;;;;168.77;49.00;;;;;;;;;;5037425;28;20203;-77
2021/12/16 09:50:47;;;;;;;171.47;50.83;;;;;;;;;;5054095;28;20720;-79
2021/12/16 09:53:15;;;;;;;163.10;50.27;;;;;;;;;;5054149;28;20238;-77
2021/12/16 09:55:46;;;;;;;164.67;49.30;;;;;;;;;;5055102;28;20250;-77
2021/12/16 09:58:13;;;;;;;159.00;48.70;;;;;;;;;;5053894;28;20191;-75
2021/12/16 10:00:42;;;;;;;151.00;46.30;;;;;;;;;;5055158;28;20266;-77
2021/12/16 10:03:10;;;;;;;158.80;48.83;;;;;;;;;;5069954;28;20658;-77
2021/12/16 10:05:37;;;;;;;151.30;46.70;;;;;;;;;;5053688;28;20290;-77
2021/12/16 10:08:05;;;;;;;157.03;48.70;;;;;;;;;;5070002;28;20203;-78
2021/12/16 10:10:33;;;;;;;148.87;46.03;;;;;;;;;;5053061;28;20207;-77
2021/12/16 10:13:02;;;;;;;114.27;39.77;;;;;;;;;;5069968;28;20196;-79
2021/12/16 10:18:13;;;;;;;92.47;33.20;;;;;;;;;;5069792;28;20617;-77
2021/12/16 10:21:04;;;;;;;78.93;27.33;;;;;;;;;;5053817;28;20176;-78
2021/12/16 10:23:38;;;;;;;122.43;43.33;;;;;;;;;;5053452;28;20192;-78
2021/12/16 10:26:21;;;;;;;95.87;32.63;;;;;;;;;;5053248;28;20280;-77
2021/12/16 10:28:53;;;;;;;114.80;38.30;;;;;;;;;;5069877;28;20188;-78
2021/12/16 10:31:22;;;;;;;130.67;41.97;;;;;;;;;;5053304;28;20200;-78
2021/12/16 10:34:05;;;;;;;127.60;42.73;;;;;;;;;;5069746;28;20641;-78
2021/12/16 10:36:39;;;;;;;117.63;41.13;;;;;;;;;;5069571;28;20238;-79
2021/12/16 10:39:11;;;;;;;131.90;46.77;;;;;;;;;;5052739;28;20189;-78
2021/12/16 10:41:54;;;;;;;87.83;31.10;;;;;;;;;;5053215;28;20188;-80
2021/12/16 10:44:24;;;;;;;67.17;24.90;;;;;;;;;;5035415;28;20180;-78
2021/12/16 10:47:05;;;;;;;119.07;41.10;;;;;;;;;;5068991;28;20189;-78
2021/12/16 10:49:36;;;;;;;196.17;60.47;;;;;;;;;;5069421;28;20229;-78
2021/12/16 10:52:10;;;;;;;203.83;64.07;;;;;;;;;;5036540;28;20662;-78
2021/12/16 10:54:40;;;;;;;187.30;51.40;;;;;;;;;;5052855;28;20176;-78
2021/12/16 10:57:18;;;;;;;199.33;59.63;;;;;;;;;;5052938;28;20545;-78
2021/12/16 10:59:48;;;;;;;218.00;64.30;;;;;;;;;;5052839;28;20267;-78
2021/12/16 11:02:21;;;;;;;237.07;67.10;;;;;;;;;;5069286;28;20177;-78
2021/12/16 11:04:48;;;;;;;218.60;56.43;;;;;;;;;;5069200;28;20518;-78
2021/12/16 11:07:38;;;;;;;225.57;56.00;;;;;;;;;;5053844;28;20642;-78
2021/12/16 11:10:10;;;;;;;208.73;52.90;;;;;;;;;;5053619;28;20200;-78
2021/12/16 11:12:50;;;;;;;223.87;55.77;;;;;;;;;;5053162;28;20243;-80
2021/12/16 11:15:29;;;;;;;234.30;53.77;;;;;;;;;;5068563;28;20622;-79
2021/12/16 11:18:07;;;;;;;247.03;56.33;;;;;;;;;;5068771;28;20661;-78
2021/12/16 11:20:44;;;;;;;215.70;53.07;;;;;;;;;;5068851;28;20690;-78
2021/12/16 11:23:14;;;;;;;217.33;51.30;;;;;;;;;;5068967;28;20208;-78
2021/12/16 11:25:45;;;;;;;140.00;38.83;;;;;;;;;;5068895;28;20191;-79
2021/12/16 11:28:23;;;;;;;227.67;54.50;;;;;;;;;;5069060;28;20234;-78
2021/12/16 11:31:01;;;;;;;223.27;50.13;;;;;;;;;;5068423;28;20298;-78
2021/12/16 11:33:52;;;;;;;221.07;55.93;;;;;;;;;;5068273;28;20276;-79
2021/12/16 11:36:40;;;;;;;220.80;51.47;;;;;;;;;;5068629;28;20205;-78
2021/12/16 11:39:27;;;;;;;225.60;51.33;;;;;;;;;;5068001;28;20184;-81
2021/12/16 11:41:57;;;;;;;220.53;50.13;;;;;;;;;;5068293;28;20540;-78
2021/12/16 11:44:35;;;;;;;217.87;51.37;;;;;;;;;;5068490;28;20202;-77
2021/12/16 11:47:25;;;;;;;198.20;48.80;;;;;;;;;;5068373;28;20176;-78
2021/12/16 11:49:59;;;;;;;209.50;53.03;;;;;;;;;;5051568;28;20278;-78
2021/12/16 11:52:31;;;;;;;304.70;85.70;;;;;;;;;;5068234;28;20215;-81
2021/12/16 11:55:08;;;;;;;215.77;58.23;;;;;;;;;;5068255;28;20187;-79
2021/12/16 11:57:44;;;;;;;161.67;42.50;;;;;;;;;;5067782;28;20540;-78
2021/12/16 12:00:22;;;;;;;178.67;44.13;;;;;;;;;;5051948;28;20176;-79
2021/12/16 12:02:53;;;;;;;194.37;48.83;;;;;;;;;;5068046;28;20196;-78
2021/12/16 12:05:28;;;;;;;183.17;48.80;;;;;;;;;;5067986;28;20176;-78
2021/12/16 12:08:00;;;;;;;195.97;48.50;;;;;;;;;;5068253;28;20180;-79
2021/12/16 12:10:47;;;;;;;210.90;47.67;;;;;;;;;;5068114;28;20245;-77
2021/12/16 12:13:20;;;;;;;179.17;44.97;;;;;;;;;;5067887;28;20192;-78
2021/12/16 12:16:01;;;;;;;210.07;49.30;;;;;;;;;;5068157;28;20184;-78
2021/12/16 12:18:50;;;;;;;204.67;49.83;;;;;;;;;;5068418;28;20176;-78
2021/12/16 12:21:39;;;;;;;198.80;49.07;;;;;;;;;;5051621;28;20556;-79
2021/12/16 12:24:21;;;;;;;189.93;48.27;;;;;;;;;;5051588;28;20176;-77
2021/12/16 12:26:53;;;;;;;192.83;47.00;;;;;;;;;;5067959;28;20210;-79
2021/12/16 12:29:35;;;;;;;211.27;51.23;;;;;;;;;;5068159;28;20187;-76
2021/12/16 12:32:05;;;;;;;206.53;53.13;;;;;;;;;;5067689;28;20316;-78
2021/12/16 12:34:35;;;;;;;190.20;48.67;;;;;;;;;;5051428;28;20192;-78
2021/12/16 12:37:06;;;;;;;201.47;52.13;;;;;;;;;;5067483;28;20573;-78
2021/12/16 12:39:42;;;;;;;188.03;46.40;;;;;;;;;;5051357;28;20181;-78
2021/12/16 12:42:11;;;;;;;184.23;50.67;;;;;;;;;;5068050;28;20184;-79
2021/12/16 12:44:39;;;;;;;199.40;50.70;;;;;;;;;;5067678;28;20192;-79
2021/12/16 12:47:11;;;;;;;179.13;50.40;;;;;;;;;;5067809;28;20196;-77
2021/12/16 12:49:39;;;;;;;165.90;45.27;;;;;;;;;;5035101;28;20184;-79
2021/12/16 12:52:09;;;;;;;161.40;46.70;;;;;;;;;;5067475;28;20323;-79
2021/12/16 12:54:39;;;;;;;159.63;46.50;;;;;;;;;;5067728;28;20641;-77
2021/12/16 12:57:31;;;;;;;175.53;47.63;;;;;;;;;;5051211;28;20208;-77
2021/12/16 12:59:59;;;;;;;164.57;47.40;;;;;;;;;;5067782;28;20636;-79
2021/12/16 13:02:32;;;;;;;162.33;46.27;;;;;;;;;;5067488;28;20200;-77
2021/12/16 13:05:11;;;;;;;63.40;20.73;;;;;;;;;;5051148;28;20217;-78
2021/12/16 13:07:43;;;;;;;79.57;29.30;;;;;;;;;;5052937;28;20184;-77
2021/12/16 13:10:20;;;;;;;85.83;29.07;;;;;;;;;;5072863;28;20182;-78
2021/12/16 13:13:03;;;;;;;108.33;39.07;;;;;;;;;;5071327;28;20231;-78
2021/12/16 13:15:48;;;;;;;106.57;34.57;;;;;;;;;;5069794;28;20255;-78
2021/12/16 13:26:39;;;;;;;72.43;33.30;;;;;;;;;;5069595;28;20172;-78
2021/12/16 13:29:26;;;;;;;30.90;14.77;;;;;;;;;;5070113;28;20176;-78
2021/12/16 13:34:43;;;;;;;67.47;30.77;;;;;;;;;;5071075;28;20172;-80
2021/12/16 13:37:36;;;;;;;62.60;29.03;;;;;;;;;;5055692;28;20222;-78
2021/12/16 13:40:20;;;;;;;51.90;24.80;;;;;;;;;;5054957;28;20199;-78
2021/12/16 13:42:54;;;;;;;52.87;24.80;;;;;;;;;;5053829;28;20192;-78
2021/12/16 13:45:29;;;;;;;62.73;29.90;;;;;;;;;;5070029;28;20622;-79
2021/12/16 13:48:08;;;;;;;33.37;14.90;;;;;;;;;;5070345;28;20187;-79
2021/12/16 14:02:05;;;;;;;53.67;25.03;;;;;;;;;;5067946;28;20310;-80
2021/12/16 14:07:26;;;;;;;64.87;29.17;;;;;;;;;;5068856;28;20771;-80
2021/12/16 14:10:07;;;;;;;42.57;20.67;;;;;;;;;;5051515;28;20232;-79
2021/12/16 14:16:00;;;;;;;51.90;24.47;;;;;;;;;;5053889;28;20227;-78
2021/12/16 14:24:21;;;;;;;38.20;18.07;;;;;;;;;;5053413;28;20227;-79
2021/12/16 14:26:53;;;;;;;29.47;12.47;;;;;;;;;;5066294;28;20307;-80
2021/12/16 14:33:11;;;;;;;17.17;9.67;;;;;;;;;;5066928;28;20228;-78
2021/12/16 14:35:16;;;;;;;16.60;9.63;;;;;;;;;;5052895;28;20281;-78
2021/12/16 14:38:06;;;;;;;22.03;10.63;;;;;;;;;;5053139;28;21138;-78
2021/12/16 14:41:05;;;;;;;22.23;12.07;;;;;;;;;;5066023;28;20235;-77
2021/12/16 14:43:40;;;;;;;33.53;16.07;;;;;;;;;;5065544;28;20220;-79
2021/12/16 14:46:10;;;;;;;23.60;12.83;;;;;;;;;;5052381;28;20227;-80
2021/12/16 14:48:38;;;;;;;16.53;7.90;;;;;;;;;;5067450;28;20278;-78
2021/12/16 14:51:09;;;;;;;20.33;8.97;;;;;;;;;;5053026;28;20216;-80
2021/12/16 14:53:56;;;;;;;22.73;11.57;;;;;;;;;;5061528;28;20216;-80
2021/12/16 14:56:26;;;;;;;16.17;9.20;;;;;;;;;;5052326;28;20217;-80
2021/12/16 14:59:17;;;;;;;25.87;11.40;;;;;;;;;;5052645;28;20274;-78
2021/12/16 15:01:48;;;;;;;13.23;7.53;;;;;;;;;;5052604;28;20594;-79
2021/12/16 15:04:22;;;;;;;23.10;10.33;;;;;;;;;;5053492;28;20227;-80
2021/12/16 15:07:00;;;;;;;19.67;9.37;;;;;;;;;;5036715;28;20207;-81
2021/12/16 15:09:31;;;;;;;24.07;8.53;;;;;;;;;;5034778;28;20307;-81
2021/12/16 15:12:13;;;;;;;18.30;9.07;;;;;;;;;;5035919;28;20239;-79
2021/12/16 15:37:36;;;;;;;30.83;15.60;;;;;;;;;;5050953;28;20227;-77
2021/12/16 15:42:49;;;;;;;34.57;20.33;;;;;;;;;;5051598;28;20245;-77
2021/12/16 15:45:28;;;;;;;53.57;25.77;;;;;;;;;;5051045;28;20212;-77
2021/12/16 15:47:58;;;;;;;41.83;23.20;;;;;;;;;;5068333;28;20220;-80
2021/12/16 15:50:35;;;;;;;41.67;20.50;;;;;;;;;;5067947;28;20224;-79
2021/12/16 15:53:07;;;;;;;32.03;16.80;;;;;;;;;;5050705;28;20223;-78
2021/12/16 15:55:36;;;;;;;43.57;20.47;;;;;;;;;;5034694;28;20634;-78
2021/12/16 15:58:31;;;;;;;60.17;33.53;;;;;;;;;;5052514;28;20212;-79
2021/12/16 16:01:05;;;;;;;44.37;23.37;;;;;;;;;;5067079;28;20224;-79
2021/12/16 16:03:33;;;;;;;34.07;21.27;;;;;;;;;;5050920;28;20220;-76
2021/12/16 16:06:05;;;;;;;41.67;23.90;;;;;;;;;;5051020;28;20231;-78
2021/12/16 16:08:34;;;;;;;34.07;19.00;;;;;;;;;;5066924;28;20220;-78
2021/12/16 16:11:06;;;;;;;33.90;16.93;;;;;;;;;;5067141;28;20242;-80
2021/12/16 16:13:42;;;;;;;35.77;18.53;;;;;;;;;;5051041;28;20236;-80
2021/12/16 16:16:14;;;;;;;52.27;25.07;;;;;;;;;;5067090;28;20219;-77
2021/12/16 16:18:49;;;;;;;99.73;49.50;;;;;;;;;;5051849;28;20234;-80
2021/12/16 16:21:20;;;;;;;49.20;25.10;;;;;;;;;;5068465;28;20241;-78
2021/12/16 16:23:52;;;;;;;49.10;25.33;;;;;;;;;;5035136;28;20228;-82
2021/12/16 16:26:22;;;;;;;56.77;27.77;;;;;;;;;;5066982;28;20223;-81
2021/12/16 16:28:51;;;;;;;63.97;30.30;;;;;;;;;;5034466;28;20228;-82
2021/12/16 16:31:21;;;;;;;53.40;22.97;;;;;;;;;;5051040;28;20222;-82
2021/12/16 16:33:49;;;;;;;34.93;20.37;;;;;;;;;;5067411;28;20724;-81
2021/12/16 16:36:19;;;;;;;26.47;15.73;;;;;;;;;;5050384;28;20249;-80
2021/12/16 16:38:54;;;;;;;22.27;14.30;;;;;;;;;;5050839;28;20251;-83
2021/12/16 16:41:26;;;;;;;48.03;24.03;;;;;;;;;;5067643;28;20219;-81
2021/12/16 16:44:00;;;;;;;35.70;19.70;;;;;;;;;;5071965;28;20216;-81
2021/12/16 16:46:40;;;;;;;35.97;21.87;;;;;;;;;;5055129;28;20215;-84
2021/12/16 16:49:25;;;;;;;43.43;22.90;;;;;;;;;;5071201;28;20220;-80
2021/12/16 16:51:56;;;;;;;21.03;11.07;;;;;;;;;;5054528;28;20223;-85
2021/12/16 16:54:26;;;;;;;22.57;12.53;;;;;;;;;;5071524;28;20208;-85
2021/12/16 16:57:10;;;;;;;29.23;17.33;;;;;;;;;;5071187;28;20249;-81
2021/12/16 16:59:42;;;;;;;20.10;11.93;;;;;;;;;;5071106;28;20219;-80
2021/12/16 17:02:35;;;;;;;20.70;11.43;;;;;;;;;;5071032;28;20231;-82
2021/12/16 17:05:19;;;;;;;26.90;13.87;;;;;;;;;;5055700;28;20299;-77
2021/12/16 17:07:46;;;;;;;20.63;9.53;;;;;;;;;;5070406;28;20224;-79
2021/12/16 17:10:30;;;;;;;18.77;11.83;;;;;;;;;;5054951;28;20596;-77
2021/12/16 17:13:19;;;;;;;17.40;11.67;;;;;;;;;;5053916;28;20243;-77
2021/12/16 17:18:23;;;;;;;18.20;11.00;;;;;;;;;;5054164;28;20709;-76
2021/12/16 17:20:53;;;;;;;11.43;7.40;;;;;;;;;;5070372;28;20230;-77
2021/12/16 17:23:22;;;;;;;18.37;8.17;;;;;;;;;;5054275;28;20216;-76
2021/12/16 17:25:49;;;;;;;21.43;13.60;;;;;;;;;;5037676;28;20305;-80
2021/12/16 17:28:16;;;;;;;12.80;9.23;;;;;;;;;;5054000;28;20216;-77
2021/12/16 17:30:46;;;;;;;13.33;8.80;;;;;;;;;;5037406;28;20277;-78
2021/12/16 17:33:23;;;;;;;10.53;6.53;;;;;;;;;;5037337;28;20231;-76
2021/12/16 17:35:51;;;;;;;10.57;4.47;;;;;;;;;;5054628;28;20222;-79
2021/12/16 17:38:27;;;;;;;5.03;3.83;;;;;;;;;;5037283;28;21799;-76
2021/12/16 17:41:06;;;;;;;8.00;3.97;;;;;;;;;;5037316;28;20265;-80
2021/12/16 17:43:38;;;;;;;9.90;5.93;;;;;;;;;;5054040;28;20230;-77
2021/12/16 17:46:14;;;;;;;7.80;4.97;;;;;;;;;;5053615;28;20219;-79
2021/12/16 17:48:47;;;;;;;12.27;6.77;;;;;;;;;;5070287;28;20236;-80
2021/12/16 17:51:26;;;;;;;8.53;4.93;;;;;;;;;;5036656;28;20568;-77
2021/12/16 17:54:02;;;;;;;7.50;4.37;;;;;;;;;;5036622;28;20240;-80
2021/12/16 17:56:31;;;;;;;7.63;5.10;;;;;;;;;;5037455;28;20269;-79
2021/12/16 17:59:02;;;;;;;10.77;5.17;;;;;;;;;;5069585;28;20251;-77
2021/12/16 18:01:34;;;;;;;8.87;4.20;;;;;;;;;;5037357;28;20787;-77
2021/12/16 18:04:06;;;;;;;7.40;4.33;;;;;;;;;;5036995;28;20719;-76
2021/12/16 18:06:43;;;;;;;6.80;3.80;;;;;;;;;;5036259;28;20254;-79
2021/12/16 18:09:14;;;;;;;11.47;4.30;;;;;;;;;;5036785;28;20273;-79
2021/12/16 18:12:01;;;;;;;9.77;4.87;;;;;;;;;;5040903;28;20240;-81
2021/12/16 18:14:46;;;;;;;8.80;5.67;;;;;;;;;;5033155;28;20664;-80
2021/12/16 18:17:26;;;;;;;7.57;5.20;;;;;;;;;;5033039;28;20265;-78